createdAt,value
2023-05-24T00:01:37.734Z,2.60
2023-05-24T00:06:39.620Z,3.35
2023-05-24T00:11:41.469Z,2.63
2023-05-24T00:16:43.447Z,2.80
2023-05-24T00:21:46.084Z,3.10
2023-05-24T00:26:48.587Z,2.97
2023-05-24T00:31:50.474Z,3.30
2023-05-24T00:36:52.358Z,3.13
2023-05-24T00:41:54.199Z,2.40
2023-05-24T00:46:56.210Z,3.17
2023-05-24T00:51:58.029Z,2.95
2023-05-24T00:56:59.910Z,2.13
2023-05-24T01:02:01.986Z,2.20
2023-05-24T01:07:21.893Z,2.85
2023-05-24T01:12:28.971Z,2.60
2023-05-24T01:17:50.464Z,2.35
2023-05-24T01:23:07.282Z,2.50
2023-05-24T01:28:11.264Z,2.22
2023-05-24T01:33:13.607Z,2.95
2023-05-24T01:38:16.159Z,2.17
2023-05-24T01:43:40.352Z,2.33
2023-05-24T01:49:21.144Z,1.83
2023-05-24T01:54:28.272Z,2.50
2023-05-24T01:59:31.947Z,2.40
2023-05-24T02:04:33.788Z,2.42
2023-05-24T02:09:36.006Z,2.10
2023-05-24T02:14:38.025Z,2.33
2023-05-24T02:19:39.952Z,3.55
2023-05-24T02:24:41.790Z,2.83
2023-05-24T02:29:43.620Z,2.33
2023-05-24T02:34:45.422Z,2.40
2023-05-24T02:39:47.278Z,3.33
2023-05-24T02:44:49.625Z,2.47
2023-05-24T02:49:51.758Z,3.72
2023-05-24T02:54:53.634Z,2.80
2023-05-24T02:59:56.540Z,3.05
2023-05-24T03:04:58.911Z,2.92
2023-05-24T03:10:00.952Z,2.67
2023-05-24T03:15:03.020Z,4.53
2023-05-24T03:20:07.074Z,2.50
2023-05-24T03:25:09.532Z,2.78
2023-05-24T03:30:11.949Z,2.60
2023-05-24T03:35:27.547Z,2.40
2023-05-24T03:40:32.397Z,2.60
2023-05-24T03:45:40.232Z,2.90
2023-05-24T03:50:42.604Z,3.10
2023-05-24T03:55:44.721Z,2.30
2023-05-24T04:00:47.630Z,2.83
2023-05-24T04:05:49.467Z,1.98
2023-05-24T04:10:51.361Z,2.25
2023-05-24T04:15:53.158Z,2.10
2023-05-24T04:20:54.943Z,2.50
2023-05-24T04:25:56.729Z,3.58
2023-05-24T04:30:59.027Z,2.28
2023-05-24T04:36:03.632Z,2.10
2023-05-24T04:41:05.857Z,4.47
2023-05-24T04:46:09.119Z,2.40
2023-05-24T04:51:11.371Z,3.00
2023-05-24T04:56:15.025Z,3.38
2023-05-24T05:01:16.866Z,3.03
2023-05-24T05:06:18.707Z,2.42
2023-05-24T05:11:20.776Z,2.55
2023-05-24T05:16:22.668Z,2.85
2023-05-24T05:21:24.663Z,2.70
2023-05-24T05:26:27.792Z,1.90
2023-05-24T05:31:29.920Z,2.75
2023-05-24T05:36:32.306Z,2.00
2023-05-24T05:41:34.069Z,1.98
2023-05-24T05:46:36.010Z,1.42
2023-05-24T05:51:38.776Z,1.30
2023-05-24T05:56:45.435Z,2.88
2023-05-24T06:01:48.909Z,1.42
2023-05-24T06:06:51.111Z,1.73
2023-05-24T06:11:52.886Z,3.13
2023-05-24T06:16:55.751Z,2.03
2023-05-24T06:21:59.395Z,1.30
2023-05-24T06:27:03.323Z,1.67
2023-05-24T06:32:07.100Z,1.52
2023-05-24T06:37:10.487Z,1.65
2023-05-24T06:42:12.306Z,1.75
2023-05-24T06:52:23.551Z,1.92
2023-05-24T06:57:25.349Z,1.95
2023-05-24T07:02:28.590Z,2.75
2023-05-24T07:07:30.457Z,2.42
2023-05-24T07:12:32.679Z,2.00
2023-05-24T07:17:34.610Z,2.22
2023-05-24T07:22:36.934Z,2.03
2023-05-24T07:27:38.762Z,5.45
2023-05-24T07:32:40.660Z,1.67
2023-05-24T07:37:42.609Z,2.08
2023-05-24T07:42:44.791Z,1.98
2023-05-24T07:47:46.725Z,3.80
2023-05-24T07:52:48.532Z,3.22
2023-05-24T07:57:50.874Z,3.95
2023-05-24T08:02:52.677Z,2.88
2023-05-24T08:07:54.917Z,4.28
2023-05-24T08:12:56.831Z,2.97
2023-05-24T08:17:58.717Z,4.85
2023-05-24T08:23:01.540Z,3.30
2023-05-24T08:28:03.515Z,3.58
2023-05-24T08:33:05.512Z,6.22
2023-05-24T08:38:07.557Z,6.07
2023-05-24T08:43:12.137Z,3.97
2023-05-24T08:48:15.319Z,7.97
2023-05-24T08:53:18.317Z,6.43
2023-05-24T08:58:20.793Z,4.60
2023-05-24T09:03:24.086Z,7.20
2023-05-24T09:08:27.612Z,6.10
2023-05-24T09:13:31.671Z,6.82
2023-05-24T09:18:33.596Z,4.55
2023-05-24T09:23:36.467Z,5.57
2023-05-24T09:28:38.558Z,4.60
2023-05-24T09:33:40.390Z,4.55
2023-05-24T09:38:43.591Z,4.88
2023-05-24T09:43:49.780Z,6.95
2023-05-24T09:48:59.920Z,5.90
2023-05-24T09:54:02.420Z,6.28
2023-05-24T09:59:08.517Z,7.50
2023-05-24T10:04:10.646Z,5.70
2023-05-24T10:09:13.979Z,8.10
2023-05-24T10:14:18.044Z,12.32
2023-05-24T10:19:19.832Z,7.10
2023-05-24T10:24:26.333Z,6.22
2023-05-24T10:29:48.609Z,9.43
2023-05-24T10:34:51.308Z,8.60
2023-05-24T10:39:54.302Z,8.70
2023-05-24T10:44:57.555Z,9.23
2023-05-24T10:50:04.556Z,9.38
2023-05-24T10:55:09.422Z,12.52
2023-05-24T11:00:35.395Z,10.60
2023-05-24T11:05:47.862Z,15.90
2023-05-24T11:10:49.973Z,13.65
2023-05-24T11:15:51.986Z,18.88
2023-05-24T11:20:54.239Z,12.77
2023-05-24T11:25:57.167Z,11.02
2023-05-24T11:31:09.487Z,10.93
2023-05-24T11:36:11.592Z,7.78
2023-05-24T11:41:13.707Z,8.32
2023-05-24T11:46:16.401Z,13.00
2023-05-24T11:51:18.248Z,12.68
2023-05-24T11:56:21.812Z,13.85
2023-05-24T12:01:25.518Z,13.95
2023-05-24T12:06:41.712Z,13.38
2023-05-24T12:11:48.155Z,13.37
2023-05-24T12:16:50.427Z,12.20
2023-05-24T12:21:58.917Z,14.40
2023-05-24T12:27:09.129Z,12.63
2023-05-24T12:32:15.422Z,18.40
2023-05-24T12:37:18.912Z,11.77
2023-05-24T12:42:23.752Z,14.45
2023-05-24T12:47:26.017Z,15.50
2023-05-24T12:52:27.962Z,11.32
2023-05-24T12:57:31.079Z,12.65
2023-05-24T13:02:32.939Z,10.95
2023-05-24T13:07:34.809Z,12.13
2023-05-24T13:12:36.948Z,10.27
2023-05-24T13:17:39.302Z,12.98
2023-05-24T13:22:41.179Z,10.23
2023-05-24T13:27:43.061Z,14.90
2023-05-24T13:32:45.016Z,13.85
2023-05-24T13:37:47.316Z,11.65
2023-05-24T13:42:49.131Z,10.50
2023-05-24T13:47:53.379Z,8.80
2023-05-24T13:52:55.447Z,6.28
2023-05-24T13:57:57.392Z,10.30
2023-05-24T14:02:59.258Z,8.85
2023-05-24T14:08:06.333Z,8.85
2023-05-24T14:13:20.480Z,7.33
2023-05-24T14:18:30.230Z,8.38
2023-05-24T14:23:32.900Z,8.07
2023-05-24T14:28:34.757Z,11.50
2023-05-24T14:33:37.862Z,8.27
2023-05-24T14:38:39.712Z,9.95
2023-05-24T14:43:42.206Z,7.78
2023-05-24T14:48:44.106Z,9.98
2023-05-24T14:53:46.059Z,7.25
2023-05-24T14:58:47.855Z,8.75
2023-05-24T15:03:49.741Z,8.93
2023-05-24T15:08:52.199Z,9.93
2023-05-24T15:13:58.468Z,7.63
2023-05-24T15:19:00.687Z,7.57
2023-05-24T15:24:02.854Z,8.98
2023-05-24T15:29:05.537Z,8.60
2023-05-24T15:34:07.388Z,8.05
2023-05-24T15:39:09.253Z,8.85
2023-05-24T15:44:11.171Z,10.00
2023-05-24T15:49:13.174Z,9.48
2023-05-24T15:54:14.975Z,10.27
2023-05-24T15:59:16.827Z,7.72
2023-05-24T16:04:19.013Z,8.27
2023-05-24T16:09:20.830Z,11.48
2023-05-24T16:14:22.689Z,10.45
2023-05-24T16:19:24.546Z,8.32
2023-05-24T16:24:27.534Z,9.38
2023-05-24T16:29:29.875Z,9.07
2023-05-24T16:34:36.598Z,9.57
2023-05-24T16:39:46.873Z,7.13
2023-05-24T16:44:48.864Z,9.35
2023-05-24T16:49:50.700Z,7.28
2023-05-24T16:54:52.512Z,9.00
2023-05-24T16:59:54.348Z,10.30
2023-05-24T17:04:56.438Z,10.77
2023-05-24T17:09:58.283Z,7.88
2023-05-24T17:15:00.258Z,8.02
2023-05-24T17:20:02.356Z,8.70
2023-05-24T17:25:05.062Z,8.27
2023-05-24T17:30:07.539Z,7.97
2023-05-24T17:35:09.518Z,9.88
2023-05-24T17:40:11.824Z,12.50
2023-05-24T17:45:13.808Z,12.38
2023-05-24T17:50:15.580Z,8.90
2023-05-24T17:55:17.481Z,9.52
2023-05-24T18:00:20.088Z,10.00
2023-05-24T18:05:22.034Z,6.78
2023-05-24T18:10:23.820Z,8.45
2023-05-24T18:15:25.750Z,8.10
2023-05-24T18:20:27.665Z,8.65
2023-05-24T18:25:29.622Z,7.22
2023-05-24T18:30:31.413Z,8.10
2023-05-24T18:35:33.204Z,8.00
2023-05-24T18:40:36.141Z,8.98
2023-05-24T18:45:38.096Z,9.25
2023-05-24T18:50:39.943Z,10.02
2023-05-24T18:55:42.020Z,8.20
2023-05-24T19:00:43.989Z,8.43
2023-05-24T19:05:46.190Z,6.50
2023-05-24T19:10:48.744Z,8.35
2023-05-24T19:15:50.638Z,10.75
2023-05-24T19:20:52.557Z,9.15
2023-05-24T19:25:54.417Z,9.52
2023-05-24T19:30:56.364Z,8.25
2023-05-24T19:35:58.217Z,8.48
2023-05-24T19:41:01.538Z,9.88
2023-05-24T19:46:07.165Z,9.48
2023-05-24T19:51:09.319Z,8.35
2023-05-24T19:56:11.364Z,9.27
2023-05-24T20:01:13.352Z,7.70
2023-05-24T20:06:16.464Z,8.82
2023-05-24T20:11:18.342Z,9.50
2023-05-24T20:16:20.661Z,13.52
2023-05-24T20:21:22.563Z,7.45
2023-05-24T20:26:24.382Z,8.93
2023-05-24T20:31:28.621Z,7.97
2023-05-24T20:36:30.550Z,11.00
2023-05-24T20:41:32.772Z,8.18
2023-05-24T20:46:34.878Z,8.85
2023-05-24T20:51:36.956Z,8.20
2023-05-24T20:56:38.826Z,12.23
2023-05-24T21:01:40.794Z,9.05
2023-05-24T21:06:42.731Z,9.50
2023-05-24T21:11:44.538Z,13.30
2023-05-24T21:16:46.419Z,9.13
2023-05-24T21:21:48.268Z,11.20
2023-05-24T21:26:50.080Z,7.55
2023-05-24T21:31:51.920Z,12.93
2023-05-24T21:36:53.758Z,10.52
2023-05-24T21:41:55.648Z,11.70
2023-05-24T21:46:57.716Z,12.82
2023-05-24T21:51:59.783Z,12.95
2023-05-24T21:57:01.865Z,11.52
2023-05-24T22:02:03.926Z,13.25
2023-05-24T22:07:06.467Z,11.68
2023-05-24T22:12:08.368Z,12.82
2023-05-24T22:17:10.273Z,17.40
2023-05-24T22:22:12.502Z,13.18
2023-05-24T22:27:16.874Z,10.30
2023-05-24T22:32:18.793Z,8.70
2023-05-24T22:37:20.999Z,13.60
2023-05-24T22:42:22.771Z,11.57
2023-05-24T22:47:24.571Z,9.60
2023-05-24T22:52:26.671Z,12.98
2023-05-24T22:57:28.577Z,13.38
2023-05-24T23:02:30.415Z,11.65
2023-05-24T23:07:32.575Z,9.30
2023-05-24T23:12:35.949Z,9.80
2023-05-24T23:17:38.154Z,7.50
2023-05-24T23:22:40.352Z,11.00
2023-05-24T23:27:42.162Z,9.18
2023-05-24T23:32:44.052Z,10.18
2023-05-24T23:37:45.981Z,9.82
2023-05-24T23:42:48.582Z,11.23
2023-05-24T23:47:50.811Z,9.48
2023-05-24T23:52:53.272Z,12.05
2023-05-24T23:57:55.627Z,11.57
